sensor_id;sensor_type;location;lat;lon;timestamp;pressure;altitude;pressure_sealevel;temperature;humidity
47983;BME280;33751;50.816;-1.214;2024-03-02T00:01:12;98909.03;;;25.26;100.00
47983;BME280;33751;50.816;-1.214;2024-03-02T00:03:39;98897.62;;;25.47;100.00
47983;BME280;33751;50.816;-1.214;2024-03-02T00:06:06;98893.60;;;25.47;100.00
47983;BME280;33751;50.816;-1.214;2024-03-02T00:08:33;98891.02;;;25.37;100.00
47983;BME280;33751;50.816;-1.214;2024-03-02T00:11:00;98891.88;;;25.39;100.00
47983;BME280;33751;50.816;-1.214;2024-03-02T00:13:27;98895.33;;;25.28;100.00
47983;BME280;33751;50.816;-1.214;2024-03-02T00:15:56;98896.05;;;25.26;100.00
47983;BME280;33751;50.816;-1.214;2024-03-02T00:18:26;98892.66;;;25.25;100.00
47983;BME280;33751;50.816;-1.214;2024-03-02T00:20:54;98892.21;;;25.05;100.00
47983;BME280;33751;50.816;-1.214;2024-03-02T00:23:21;98894.08;;;25.30;100.00
47983;BME280;33751;50.816;-1.214;2024-03-02T00:25:49;98890.63;;;25.25;100.00
47983;BME280;33751;50.816;-1.214;2024-03-02T00:28:19;98893.74;;;25.18;100.00
47983;BME280;33751;50.816;-1.214;2024-03-02T00:30:55;98895.82;;;25.14;100.00
47983;BME280;33751;50.816;-1.214;2024-03-02T00:33:23;98898.41;;;25.16;100.00
47983;BME280;33751;50.816;-1.214;2024-03-02T00:35:50;98911.80;;;25.24;100.00
47983;BME280;33751;50.816;-1.214;2024-03-02T00:38:16;98911.29;;;25.50;100.00
47983;BME280;33751;50.816;-1.214;2024-03-02T00:40:44;98915.87;;;25.15;100.00
47983;BME280;33751;50.816;-1.214;2024-03-02T00:43:35;98920.73;;;25.16;99.90
47983;BME280;33751;50.816;-1.214;2024-03-02T00:46:06;98924.40;;;24.87;99.93
47983;BME280;33751;50.816;-1.214;2024-03-02T00:48:33;98921.29;;;25.07;99.80
47983;BME280;33751;50.816;-1.214;2024-03-02T00:51:00;98922.74;;;25.02;99.69
47983;BME280;33751;50.816;-1.214;2024-03-02T00:53:26;98920.52;;;25.04;99.40
47983;BME280;33751;50.816;-1.214;2024-03-02T00:55:53;98916.58;;;24.98;99.27
47983;BME280;33751;50.816;-1.214;2024-03-02T00:58:20;98905.83;;;25.24;99.07
47983;BME280;33751;50.816;-1.214;2024-03-02T01:00:47;98906.72;;;24.92;99.12
47983;BME280;33751;50.816;-1.214;2024-03-02T01:03:14;98894.70;;;24.90;99.20
47983;BME280;33751;50.816;-1.214;2024-03-02T01:05:41;98882.44;;;24.90;99.04
47983;BME280;33751;50.816;-1.214;2024-03-02T01:08:09;98875.71;;;24.87;99.13
47983;BME280;33751;50.816;-1.214;2024-03-02T01:10:36;98876.57;;;24.86;99.12
47983;BME280;33751;50.816;-1.214;2024-03-02T01:13:03;98869.65;;;24.72;99.38
47983;BME280;33751;50.816;-1.214;2024-03-02T01:15:30;98868.24;;;24.79;99.08
47983;BME280;33751;50.816;-1.214;2024-03-02T01:17:57;98860.89;;;24.80;98.94
47983;BME280;33751;50.816;-1.214;2024-03-02T01:20:23;98858.33;;;24.79;98.85
47983;BME280;33751;50.816;-1.214;2024-03-02T01:22:50;98857.34;;;24.85;98.52
47983;BME280;33751;50.816;-1.214;2024-03-02T01:25:17;98851.74;;;24.80;98.51
47983;BME280;33751;50.816;-1.214;2024-03-02T01:27:44;98858.46;;;25.18;98.59
47983;BME280;33751;50.816;-1.214;2024-03-02T01:30:11;98859.82;;;24.80;98.31
47983;BME280;33751;50.816;-1.214;2024-03-02T01:32:38;98859.07;;;24.79;98.22
47983;BME280;33751;50.816;-1.214;2024-03-02T01:35:06;98849.06;;;24.71;98.32
47983;BME280;33751;50.816;-1.214;2024-03-02T01:37:33;98849.89;;;24.69;98.27
47983;BME280;33751;50.816;-1.214;2024-03-02T01:40:00;98843.32;;;24.69;98.23
47983;BME280;33751;50.816;-1.214;2024-03-02T01:42:28;98839.34;;;25.13;98.26
47983;BME280;33751;50.816;-1.214;2024-03-02T01:44:55;98835.28;;;25.12;98.19
47983;BME280;33751;50.816;-1.214;2024-03-02T01:47:22;98832.52;;;24.63;98.14
47983;BME280;33751;50.816;-1.214;2024-03-02T01:49:49;98825.08;;;24.82;98.20
47983;BME280;33751;50.816;-1.214;2024-03-02T01:52:16;98837.55;;;24.50;98.25
47983;BME280;33751;50.816;-1.214;2024-03-02T01:54:43;98823.07;;;24.49;98.15
47983;BME280;33751;50.816;-1.214;2024-03-02T01:57:09;98817.89;;;24.50;98.09
47983;BME280;33751;50.816;-1.214;2024-03-02T01:59:36;98812.38;;;24.66;98.27
47983;BME280;33751;50.816;-1.214;2024-03-02T02:02:04;98808.35;;;24.62;98.33
47983;BME280;33751;50.816;-1.214;2024-03-02T02:04:31;98809.61;;;24.42;98.05
47983;BME280;33751;50.816;-1.214;2024-03-02T02:06:57;98806.64;;;24.72;97.85
47983;BME280;33751;50.816;-1.214;2024-03-02T02:09:25;98806.03;;;24.45;97.71
47983;BME280;33751;50.816;-1.214;2024-03-02T02:11:52;98800.82;;;24.89;97.67
47983;BME280;33751;50.816;-1.214;2024-03-02T02:14:19;98801.55;;;24.42;97.50
47983;BME280;33751;50.816;-1.214;2024-03-02T02:16:46;98792.29;;;24.92;97.30
47983;BME280;33751;50.816;-1.214;2024-03-02T02:19:13;98798.07;;;24.36;97.34
47983;BME280;33751;50.816;-1.214;2024-03-02T02:21:42;98794.29;;;24.60;97.29
47983;BME280;33751;50.816;-1.214;2024-03-02T02:24:09;98788.81;;;24.55;97.22
47983;BME280;33751;50.816;-1.214;2024-03-02T02:26:36;98783.51;;;24.76;97.10
47983;BME280;33751;50.816;-1.214;2024-03-02T02:29:02;98775.62;;;24.71;97.11
47983;BME280;33751;50.816;-1.214;2024-03-02T02:31:36;98766.11;;;24.22;96.94
47983;BME280;33751;50.816;-1.214;2024-03-02T02:34:03;98772.98;;;24.21;96.87
47983;BME280;33751;50.816;-1.214;2024-03-02T02:36:30;98773.87;;;24.72;96.64
47983;BME280;33751;50.816;-1.214;2024-03-02T02:38:59;98768.60;;;24.70;96.52
47983;BME280;33751;50.816;-1.214;2024-03-02T02:41:26;98763.75;;;24.60;96.61
47983;BME280;33751;50.816;-1.214;2024-03-02T02:43:53;98760.52;;;24.05;96.65
47983;BME280;33751;50.816;-1.214;2024-03-02T02:46:19;98750.74;;;24.57;96.45
47983;BME280;33751;50.816;-1.214;2024-03-02T02:48:47;98744.89;;;24.34;96.30
47983;BME280;33751;50.816;-1.214;2024-03-02T02:51:13;98739.78;;;24.03;96.30
47983;BME280;33751;50.816;-1.214;2024-03-02T02:53:40;98734.65;;;24.29;96.17
47983;BME280;33751;50.816;-1.214;2024-03-02T02:56:06;98730.66;;;24.03;96.01
47983;BME280;33751;50.816;-1.214;2024-03-02T02:58:33;98729.55;;;24.32;95.79
47983;BME280;33751;50.816;-1.214;2024-03-02T03:01:00;98726.21;;;24.22;95.92
47983;BME280;33751;50.816;-1.214;2024-03-02T03:03:26;98726.12;;;24.43;95.81
47983;BME280;33751;50.816;-1.214;2024-03-02T03:05:53;98720.74;;;24.15;95.87
47983;BME280;33751;50.816;-1.214;2024-03-02T03:08:19;98714.40;;;23.89;95.71
47983;BME280;33751;50.816;-1.214;2024-03-02T03:10:46;98707.41;;;24.38;95.60
47983;BME280;33751;50.816;-1.214;2024-03-02T03:13:12;98701.93;;;24.31;95.61
47983;BME280;33751;50.816;-1.214;2024-03-02T03:15:39;98693.09;;;24.12;95.44
47983;BME280;33751;50.816;-1.214;2024-03-02T03:18:05;98686.25;;;24.33;95.28
47983;BME280;33751;50.816;-1.214;2024-03-02T03:20:33;98674.74;;;24.32;95.32
47983;BME280;33751;50.816;-1.214;2024-03-02T03:23:00;98669.04;;;24.23;95.38
47983;BME280;33751;50.816;-1.214;2024-03-02T03:25:26;98661.75;;;24.24;95.23
47983;BME280;33751;50.816;-1.214;2024-03-02T03:27:53;98655.84;;;24.16;95.29
47983;BME280;33751;50.816;-1.214;2024-03-02T03:30:19;98653.25;;;24.43;95.04
47983;BME280;33751;50.816;-1.214;2024-03-02T03:32:46;98648.49;;;24.22;94.90
47983;BME280;33751;50.816;-1.214;2024-03-02T03:35:13;98644.94;;;24.12;94.97
47983;BME280;33751;50.816;-1.214;2024-03-02T03:37:41;98638.48;;;23.82;95.06
47983;BME280;33751;50.816;-1.214;2024-03-02T03:40:08;98632.87;;;24.01;95.04
47983;BME280;33751;50.816;-1.214;2024-03-02T03:42:36;98627.69;;;23.75;95.01
47983;BME280;33751;50.816;-1.214;2024-03-02T03:45:03;98617.84;;;24.06;94.76
47983;BME280;33751;50.816;-1.214;2024-03-02T03:47:31;98614.05;;;24.05;94.57
47983;BME280;33751;50.816;-1.214;2024-03-02T03:49:58;98624.38;;;24.08;94.44
47983;BME280;33751;50.816;-1.214;2024-03-02T03:52:25;98609.67;;;24.05;94.36
47983;BME280;33751;50.816;-1.214;2024-03-02T03:54:52;98610.49;;;24.19;94.45
47983;BME280;33751;50.816;-1.214;2024-03-02T03:57:19;98627.52;;;23.88;94.59
47983;BME280;33751;50.816;-1.214;2024-03-02T03:59:46;98610.84;;;23.36;94.58
47983;BME280;33751;50.816;-1.214;2024-03-02T04:02:12;98616.79;;;23.91;94.37
47983;BME280;33751;50.816;-1.214;2024-03-02T04:04:39;98617.17;;;23.67;94.24
47983;BME280;33751;50.816;-1.214;2024-03-02T04:07:05;98615.17;;;23.88;94.24
47983;BME280;33751;50.816;-1.214;2024-03-02T04:09:32;98610.51;;;23.40;94.14
47983;BME280;33751;50.816;-1.214;2024-03-02T04:11:58;98607.47;;;23.87;94.13
47983;BME280;33751;50.816;-1.214;2024-03-02T04:14:25;98602.31;;;23.85;94.05
47983;BME280;33751;50.816;-1.214;2024-03-02T04:16:51;98610.49;;;24.01;94.14
47983;BME280;33751;50.816;-1.214;2024-03-02T04:19:18;98614.99;;;23.51;94.15
47983;BME280;33751;50.816;-1.214;2024-03-02T04:21:44;98609.78;;;23.88;94.35
47983;BME280;33751;50.816;-1.214;2024-03-02T04:24:11;98603.05;;;23.66;94.27
47983;BME280;33751;50.816;-1.214;2024-03-02T04:26:37;98609.27;;;23.66;94.22
47983;BME280;33751;50.816;-1.214;2024-03-02T04:29:04;98606.00;;;23.61;94.19
47983;BME280;33751;50.816;-1.214;2024-03-02T04:31:30;98607.38;;;23.67;94.03
47983;BME280;33751;50.816;-1.214;2024-03-02T04:33:57;98598.53;;;23.66;94.00
47983;BME280;33751;50.816;-1.214;2024-03-02T04:36:23;98607.49;;;23.62;94.00
47983;BME280;33751;50.816;-1.214;2024-03-02T04:38:51;98605.71;;;23.54;94.13
47983;BME280;33751;50.816;-1.214;2024-03-02T04:41:18;98606.59;;;23.55;94.08
47983;BME280;33751;50.816;-1.214;2024-03-02T04:43:45;98614.94;;;23.47;94.20
47983;BME280;33751;50.816;-1.214;2024-03-02T04:46:12;98604.58;;;23.49;94.07
47983;BME280;33751;50.816;-1.214;2024-03-02T04:48:38;98618.08;;;23.63;94.28
47983;BME280;33751;50.816;-1.214;2024-03-02T04:51:05;98616.30;;;23.45;94.16
47983;BME280;33751;50.816;-1.214;2024-03-02T04:53:31;98612.65;;;23.39;94.17
47983;BME280;33751;50.816;-1.214;2024-03-02T04:55:58;98609.40;;;23.42;94.13
47983;BME280;33751;50.816;-1.214;2024-03-02T04:58:24;98614.19;;;23.40;94.12
47983;BME280;33751;50.816;-1.214;2024-03-02T05:00:51;98614.64;;;23.33;94.20
47983;BME280;33751;50.816;-1.214;2024-03-02T05:03:17;98621.49;;;23.39;94.11
47983;BME280;33751;50.816;-1.214;2024-03-02T05:05:44;98619.78;;;23.65;93.95
47983;BME280;33751;50.816;-1.214;2024-03-02T05:08:10;98618.98;;;23.63;93.96
47983;BME280;33751;50.816;-1.214;2024-03-02T05:10:37;98618.96;;;23.47;93.71
47983;BME280;33751;50.816;-1.214;2024-03-02T05:13:03;98620.12;;;23.68;93.69
47983;BME280;33751;50.816;-1.214;2024-03-02T05:15:30;98613.76;;;23.44;93.69
47983;BME280;33751;50.816;-1.214;2024-03-02T05:17:56;98613.95;;;23.32;93.93
47983;BME280;33751;50.816;-1.214;2024-03-02T05:20:23;98618.79;;;23.29;93.97
47983;BME280;33751;50.816;-1.214;2024-03-02T05:22:50;98622.14;;;23.24;94.05
47983;BME280;33751;50.816;-1.214;2024-03-02T05:25:17;98624.95;;;23.54;93.93
47983;BME280;33751;50.816;-1.214;2024-03-02T05:27:43;98630.62;;;23.33;93.73
47983;BME280;33751;50.816;-1.214;2024-03-02T05:30:11;98627.12;;;23.33;93.71
47983;BME280;33751;50.816;-1.214;2024-03-02T05:32:37;98624.82;;;23.18;94.03
47983;BME280;33751;50.816;-1.214;2024-03-02T05:35:05;98635.37;;;23.18;94.03
47983;BME280;33751;50.816;-1.214;2024-03-02T05:37:32;98631.62;;;23.25;93.86
47983;BME280;33751;50.816;-1.214;2024-03-02T05:39:58;98633.30;;;23.26;93.82
47983;BME280;33751;50.816;-1.214;2024-03-02T05:42:25;98638.45;;;23.25;93.78
47983;BME280;33751;50.816;-1.214;2024-03-02T05:44:51;98642.17;;;23.71;93.84
47983;BME280;33751;50.816;-1.214;2024-03-02T05:47:18;98641.36;;;23.09;94.19
47983;BME280;33751;50.816;-1.214;2024-03-02T05:49:45;98638.84;;;23.38;94.01
47983;BME280;33751;50.816;-1.214;2024-03-02T05:52:12;98646.84;;;23.00;94.37
47983;BME280;33751;50.816;-1.214;2024-03-02T05:54:39;98649.73;;;23.04;94.27
47983;BME280;33751;50.816;-1.214;2024-03-02T05:57:05;98651.72;;;22.98;94.85
47983;BME280;33751;50.816;-1.214;2024-03-02T05:59:32;98653.01;;;23.37;94.12
47983;BME280;33751;50.816;-1.214;2024-03-02T06:01:59;98655.44;;;23.16;94.01
47983;BME280;33751;50.816;-1.214;2024-03-02T06:04:26;98662.98;;;23.08;94.12
47983;BME280;33751;50.816;-1.214;2024-03-02T06:06:52;98670.31;;;23.31;94.21
47983;BME280;33751;50.816;-1.214;2024-03-02T06:09:19;98668.76;;;23.27;94.27
47983;BME280;33751;50.816;-1.214;2024-03-02T06:11:45;98673.94;;;23.21;94.42
47983;BME280;33751;50.816;-1.214;2024-03-02T06:14:12;98677.66;;;23.00;94.39
47983;BME280;33751;50.816;-1.214;2024-03-02T06:16:38;98683.51;;;23.01;94.26
47983;BME280;33751;50.816;-1.214;2024-03-02T06:19:05;98686.36;;;23.26;94.11
47983;BME280;33751;50.816;-1.214;2024-03-02T06:21:31;98691.24;;;23.32;93.90
47983;BME280;33751;50.816;-1.214;2024-03-02T06:23:59;98697.62;;;23.27;93.94
47983;BME280;33751;50.816;-1.214;2024-03-02T06:26:25;98698.42;;;23.20;94.15
47983;BME280;33751;50.816;-1.214;2024-03-02T06:28:52;98698.13;;;23.27;93.97
47983;BME280;33751;50.816;-1.214;2024-03-02T06:31:19;98705.93;;;22.97;94.03
47983;BME280;33751;50.816;-1.214;2024-03-02T06:33:46;98716.39;;;22.86;94.33
47983;BME280;33751;50.816;-1.214;2024-03-02T06:36:12;98722.01;;;23.05;94.53
47983;BME280;33751;50.816;-1.214;2024-03-02T06:38:39;98728.70;;;23.01;94.45
47983;BME280;33751;50.816;-1.214;2024-03-02T06:41:06;98731.55;;;23.29;94.52
47983;BME280;33751;50.816;-1.214;2024-03-02T06:43:33;98734.77;;;23.06;94.77
47983;BME280;33751;50.816;-1.214;2024-03-02T06:46:00;98738.68;;;22.97;95.12
47983;BME280;33751;50.816;-1.214;2024-03-02T06:48:27;98745.20;;;23.04;95.14
47983;BME280;33751;50.816;-1.214;2024-03-02T06:50:53;98749.61;;;23.14;95.03
47983;BME280;33751;50.816;-1.214;2024-03-02T06:53:19;98754.30;;;22.96;95.03
47983;BME280;33751;50.816;-1.214;2024-03-02T06:55:46;98756.30;;;23.23;95.04
47983;BME280;33751;50.816;-1.214;2024-03-02T06:58:14;98763.44;;;23.25;95.15
47983;BME280;33751;50.816;-1.214;2024-03-02T07:00:41;98766.26;;;23.68;94.88
47983;BME280;33751;50.816;-1.214;2024-03-02T07:03:07;98771.96;;;23.55;94.78
47983;BME280;33751;50.816;-1.214;2024-03-02T07:05:34;98773.41;;;23.60;95.41
47983;BME280;33751;50.816;-1.214;2024-03-02T07:08:01;98778.57;;;23.54;96.09
47983;BME280;33751;50.816;-1.214;2024-03-02T07:10:27;98780.33;;;23.57;96.46
47983;BME280;33751;50.816;-1.214;2024-03-02T07:12:54;98780.98;;;23.72;96.27
47983;BME280;33751;50.816;-1.214;2024-03-02T07:15:21;98779.26;;;23.60;96.13
47983;BME280;33751;50.816;-1.214;2024-03-02T07:17:47;98781.39;;;23.90;95.87
47983;BME280;33751;50.816;-1.214;2024-03-02T07:20:14;98782.27;;;23.97;95.60
47983;BME280;33751;50.816;-1.214;2024-03-02T07:22:41;98779.87;;;23.99;95.63
47983;BME280;33751;50.816;-1.214;2024-03-02T07:25:08;98778.95;;;24.04;95.45
47983;BME280;33751;50.816;-1.214;2024-03-02T07:27:35;98783.25;;;24.14;95.25
47983;BME280;33751;50.816;-1.214;2024-03-02T07:30:01;98788.51;;;24.17;95.22
47983;BME280;33751;50.816;-1.214;2024-03-02T07:32:29;98786.04;;;24.24;95.06
47983;BME280;33751;50.816;-1.214;2024-03-02T07:34:55;98789.88;;;24.06;95.01
47983;BME280;33751;50.816;-1.214;2024-03-02T07:37:22;98791.03;;;24.33;94.89
47983;BME280;33751;50.816;-1.214;2024-03-02T07:39:50;98794.39;;;24.37;94.82
47983;BME280;33751;50.816;-1.214;2024-03-02T07:42:16;98797.97;;;23.96;94.59
47983;BME280;33751;50.816;-1.214;2024-03-02T07:44:44;98800.29;;;24.11;94.21
47983;BME280;33751;50.816;-1.214;2024-03-02T07:47:11;98802.33;;;24.18;94.00
47983;BME280;33751;50.816;-1.214;2024-03-02T07:49:38;98802.23;;;24.32;93.76
47983;BME280;33751;50.816;-1.214;2024-03-02T07:52:05;98807.36;;;24.89;93.57
47983;BME280;33751;50.816;-1.214;2024-03-02T07:54:31;98809.78;;;24.52;93.33
47983;BME280;33751;50.816;-1.214;2024-03-02T07:56:58;98813.94;;;24.63;93.12
47983;BME280;33751;50.816;-1.214;2024-03-02T07:59:25;98813.62;;;24.64;93.13
47983;BME280;33751;50.816;-1.214;2024-03-02T08:01:53;98819.77;;;24.65;93.10
47983;BME280;33751;50.816;-1.214;2024-03-02T08:04:20;98815.94;;;24.74;92.98
47983;BME280;33751;50.816;-1.214;2024-03-02T08:06:48;98816.83;;;24.82;92.74
47983;BME280;33751;50.816;-1.214;2024-03-02T08:09:15;98819.66;;;25.30;92.85
47983;BME280;33751;50.816;-1.214;2024-03-02T08:11:41;98824.19;;;24.78;93.05
47983;BME280;33751;50.816;-1.214;2024-03-02T08:14:08;98824.91;;;24.81;93.06
47983;BME280;33751;50.816;-1.214;2024-03-02T08:16:34;98826.60;;;24.91;92.90
47983;BME280;33751;50.816;-1.214;2024-03-02T08:19:01;98831.29;;;25.20;92.43
47983;BME280;33751;50.816;-1.214;2024-03-02T08:21:27;98836.55;;;25.06;92.24
47983;BME280;33751;50.816;-1.214;2024-03-02T08:23:54;98832.56;;;25.50;92.02
47983;BME280;33751;50.816;-1.214;2024-03-02T08:26:20;98830.93;;;25.27;91.90
47983;BME280;33751;50.816;-1.214;2024-03-02T08:28:47;98834.81;;;25.64;92.07
47983;BME280;33751;50.816;-1.214;2024-03-02T08:31:14;98841.22;;;25.69;92.31
47983;BME280;33751;50.816;-1.214;2024-03-02T08:33:41;98843.71;;;25.45;93.33
47983;BME280;33751;50.816;-1.214;2024-03-02T08:36:08;98843.72;;;25.60;94.90
47983;BME280;33751;50.816;-1.214;2024-03-02T08:38:36;98854.13;;;25.66;95.77
47983;BME280;33751;50.816;-1.214;2024-03-02T08:41:03;98860.10;;;25.63;96.45
47983;BME280;33751;50.816;-1.214;2024-03-02T08:43:30;98866.11;;;26.10;96.63
47983;BME280;33751;50.816;-1.214;2024-03-02T08:45:57;98868.06;;;25.90;96.58
47983;BME280;33751;50.816;-1.214;2024-03-02T08:48:24;98871.03;;;25.49;96.73
47983;BME280;33751;50.816;-1.214;2024-03-02T08:50:50;98868.98;;;25.29;96.54
47983;BME280;33751;50.816;-1.214;2024-03-02T08:53:17;98866.89;;;25.87;96.14
47983;BME280;33751;50.816;-1.214;2024-03-02T08:55:44;98876.52;;;25.77;95.77
47983;BME280;33751;50.816;-1.214;2024-03-02T08:58:11;98883.22;;;26.04;96.95
47983;BME280;33751;50.816;-1.214;2024-03-02T09:00:37;98891.77;;;25.70;97.40
47983;BME280;33751;50.816;-1.214;2024-03-02T09:03:04;98894.71;;;25.97;97.06
47983;BME280;33751;50.816;-1.214;2024-03-02T09:05:31;98896.18;;;26.22;96.72
47983;BME280;33751;50.816;-1.214;2024-03-02T09:07:58;98896.91;;;25.74;96.25
47983;BME280;33751;50.816;-1.214;2024-03-02T09:10:25;98897.53;;;25.85;95.85
47983;BME280;33751;50.816;-1.214;2024-03-02T09:12:51;98901.71;;;25.84;95.51
47983;BME280;33751;50.816;-1.214;2024-03-02T09:15:18;98904.67;;;25.87;95.09
47983;BME280;33751;50.816;-1.214;2024-03-02T09:17:44;98900.92;;;25.88;94.53
47983;BME280;33751;50.816;-1.214;2024-03-02T09:20:11;98910.68;;;25.81;94.44
47983;BME280;33751;50.816;-1.214;2024-03-02T09:22:38;98914.77;;;25.84;94.20
47983;BME280;33751;50.816;-1.214;2024-03-02T09:25:05;98916.42;;;26.09;94.09
47983;BME280;33751;50.816;-1.214;2024-03-02T09:27:32;98918.32;;;25.84;93.23
47983;BME280;33751;50.816;-1.214;2024-03-02T09:29:59;98922.17;;;26.14;92.78
47983;BME280;33751;50.816;-1.214;2024-03-02T09:32:26;98922.76;;;26.17;92.48
47983;BME280;33751;50.816;-1.214;2024-03-02T09:34:52;98926.35;;;26.18;92.23
47983;BME280;33751;50.816;-1.214;2024-03-02T09:37:19;98926.71;;;26.15;92.26
47983;BME280;33751;50.816;-1.214;2024-03-02T09:39:45;98930.98;;;26.27;92.45
47983;BME280;33751;50.816;-1.214;2024-03-02T09:42:13;98935.64;;;26.32;92.18
47983;BME280;33751;50.816;-1.214;2024-03-02T09:44:40;98939.60;;;26.40;92.33
47983;BME280;33751;50.816;-1.214;2024-03-02T09:47:07;98942.15;;;25.94;91.99
47983;BME280;33751;50.816;-1.214;2024-03-02T09:49:35;98945.94;;;26.51;91.59
47983;BME280;33751;50.816;-1.214;2024-03-02T09:52:03;98952.27;;;26.36;91.72
47983;BME280;33751;50.816;-1.214;2024-03-02T09:54:31;98955.64;;;26.35;91.59
47983;BME280;33751;50.816;-1.214;2024-03-02T09:56:58;98954.68;;;25.75;91.80
47983;BME280;33751;50.816;-1.214;2024-03-02T09:59:25;98956.62;;;26.15;91.05
47983;BME280;33751;50.816;-1.214;2024-03-02T10:01:56;98954.71;;;25.90;90.66
47983;BME280;33751;50.816;-1.214;2024-03-02T10:04:30;98961.01;;;26.55;90.55
47983;BME280;33751;50.816;-1.214;2024-03-02T10:07:13;98961.99;;;26.02;90.33
47983;BME280;33751;50.816;-1.214;2024-03-02T10:09:41;98958.87;;;25.80;89.72
47983;BME280;33751;50.816;-1.214;2024-03-02T10:12:10;98959.41;;;25.99;89.37
47983;BME280;33751;50.816;-1.214;2024-03-02T10:14:37;98964.81;;;26.07;88.81
47983;BME280;33751;50.816;-1.214;2024-03-02T10:17:06;98970.12;;;26.09;88.69
47983;BME280;33751;50.816;-1.214;2024-03-02T10:19:34;98972.99;;;26.10;88.60
47983;BME280;33751;50.816;-1.214;2024-03-02T10:22:02;98979.42;;;26.41;88.47
47983;BME280;33751;50.816;-1.214;2024-03-02T10:24:35;98983.06;;;26.30;88.27
47983;BME280;33751;50.816;-1.214;2024-03-02T10:27:07;98983.83;;;26.46;89.34
47983;BME280;33751;50.816;-1.214;2024-03-02T10:29:36;98989.90;;;26.08;88.74
47983;BME280;33751;50.816;-1.214;2024-03-02T10:32:04;98993.46;;;26.10;88.59
47983;BME280;33751;50.816;-1.214;2024-03-02T10:34:31;98996.91;;;26.19;88.90
47983;BME280;33751;50.816;-1.214;2024-03-02T10:36:59;98997.20;;;26.10;89.24
47983;BME280;33751;50.816;-1.214;2024-03-02T10:39:26;98994.09;;;25.86;89.31
47983;BME280;33751;50.816;-1.214;2024-03-02T10:41:55;98997.74;;;26.41;88.92
47983;BME280;33751;50.816;-1.214;2024-03-02T10:44:22;99000.47;;;26.47;88.65
47983;BME280;33751;50.816;-1.214;2024-03-02T10:46:50;99009.02;;;26.54;88.49
47983;BME280;33751;50.816;-1.214;2024-03-02T10:49:17;99014.97;;;26.68;87.99
47983;BME280;33751;50.816;-1.214;2024-03-02T10:51:44;99014.35;;;26.49;87.74
47983;BME280;33751;50.816;-1.214;2024-03-02T10:54:11;99017.96;;;26.31;87.23
47983;BME280;33751;50.816;-1.214;2024-03-02T10:56:40;99018.45;;;26.34;87.06
47983;BME280;33751;50.816;-1.214;2024-03-02T10:59:17;99021.16;;;26.55;88.12
47983;BME280;33751;50.816;-1.214;2024-03-02T11:01:50;99021.64;;;26.71;89.76
47983;BME280;33751;50.816;-1.214;2024-03-02T11:04:18;99018.99;;;26.58;93.97
47983;BME280;33751;50.816;-1.214;2024-03-02T11:06:49;99018.30;;;26.68;93.76
47983;BME280;33751;50.816;-1.214;2024-03-02T11:09:20;99022.23;;;26.83;94.33
47983;BME280;33751;50.816;-1.214;2024-03-02T11:11:54;99025.49;;;27.10;94.68
47983;BME280;33751;50.816;-1.214;2024-03-02T11:14:24;99024.72;;;26.67;94.42
47983;BME280;33751;50.816;-1.214;2024-03-02T11:16:52;99028.10;;;26.21;94.24
47983;BME280;33751;50.816;-1.214;2024-03-02T11:19:19;99032.05;;;26.06;93.58
47983;BME280;33751;50.816;-1.214;2024-03-02T11:21:47;99035.90;;;26.27;93.11
47983;BME280;33751;50.816;-1.214;2024-03-02T11:24:31;99037.96;;;26.00;92.85
47983;BME280;33751;50.816;-1.214;2024-03-02T11:26:59;99039.93;;;25.83;93.08
47983;BME280;33751;50.816;-1.214;2024-03-02T11:29:58;99043.61;;;26.49;95.46
47983;BME280;33751;50.816;-1.214;2024-03-02T11:32:25;99048.33;;;26.34;96.28
47983;BME280;33751;50.816;-1.214;2024-03-02T11:34:52;99047.36;;;26.54;95.88
47983;BME280;33751;50.816;-1.214;2024-03-02T11:37:20;99046.14;;;25.99;95.25
47983;BME280;33751;50.816;-1.214;2024-03-02T11:39:49;99052.68;;;26.08;94.07
47983;BME280;33751;50.816;-1.214;2024-03-02T11:42:17;99050.14;;;26.39;93.60
47983;BME280;33751;50.816;-1.214;2024-03-02T11:44:46;99051.65;;;26.00;93.12
47983;BME280;33751;50.816;-1.214;2024-03-02T11:47:14;99053.16;;;26.44;92.85
47983;BME280;33751;50.816;-1.214;2024-03-02T11:49:42;99058.46;;;25.92;93.09
47983;BME280;33751;50.816;-1.214;2024-03-02T11:52:11;99056.67;;;25.90;92.88
47983;BME280;33751;50.816;-1.214;2024-03-02T11:54:41;99061.54;;;25.85;93.26
47983;BME280;33751;50.816;-1.214;2024-03-02T11:57:09;99061.46;;;25.82;93.63
47983;BME280;33751;50.816;-1.214;2024-03-02T11:59:35;99060.80;;;25.91;96.11
47983;BME280;33751;50.816;-1.214;2024-03-02T12:02:03;99062.19;;;26.45;96.66
47983;BME280;33751;50.816;-1.214;2024-03-02T12:04:30;99062.17;;;25.96;97.57
47983;BME280;33751;50.816;-1.214;2024-03-02T12:06:59;99059.78;;;26.44;97.82
47983;BME280;33751;50.816;-1.214;2024-03-02T12:09:27;99061.03;;;26.60;96.26
47983;BME280;33751;50.816;-1.214;2024-03-02T12:12:03;99059.45;;;26.11;95.71
47983;BME280;33751;50.816;-1.214;2024-03-02T12:14:30;99064.09;;;26.33;95.11
47983;BME280;33751;50.816;-1.214;2024-03-02T12:16:57;99064.90;;;26.65;95.51
47983;BME280;33751;50.816;-1.214;2024-03-02T12:19:24;99063.42;;;26.17;95.79
47983;BME280;33751;50.816;-1.214;2024-03-02T12:21:51;99065.19;;;26.21;95.81
47983;BME280;33751;50.816;-1.214;2024-03-02T12:24:19;99064.02;;;26.69;95.73
47983;BME280;33751;50.816;-1.214;2024-03-02T12:26:46;99062.52;;;26.47;96.10
47983;BME280;33751;50.816;-1.214;2024-03-02T12:29:13;99063.52;;;26.57;96.19
47983;BME280;33751;50.816;-1.214;2024-03-02T12:31:40;99067.64;;;26.34;97.58
47983;BME280;33751;50.816;-1.214;2024-03-02T12:34:09;99068.13;;;26.46;99.23
47983;BME280;33751;50.816;-1.214;2024-03-02T12:36:37;99072.19;;;26.25;100.00
47983;BME280;33751;50.816;-1.214;2024-03-02T12:39:05;99072.65;;;26.14;100.00
47983;BME280;33751;50.816;-1.214;2024-03-02T12:41:31;99075.49;;;26.74;100.00
47983;BME280;33751;50.816;-1.214;2024-03-02T12:43:58;99073.81;;;26.53;100.00
47983;BME280;33751;50.816;-1.214;2024-03-02T12:46:25;99076.22;;;26.96;100.00
47983;BME280;33751;50.816;-1.214;2024-03-02T12:48:52;99076.79;;;26.46;100.00
47983;BME280;33751;50.816;-1.214;2024-03-02T12:51:18;99080.64;;;26.78;100.00